sensor_id;sensor_type;location;lat;lon;timestamp;P1;durP1;ratioP1;P2;durP2;ratioP2
3783;SDS011;1907;49.238;9.262;2022-12-15T00:01:46;18.83;;;16.90;;
3783;SDS011;1907;49.238;9.262;2022-12-15T00:04:30;18.47;;;16.70;;
3783;SDS011;1907;49.238;9.262;2022-12-15T00:07:15;20.90;;;16.60;;
3783;SDS011;1907;49.238;9.262;2022-12-15T00:09:58;16.00;;;14.50;;
3783;SDS011;1907;49.238;9.262;2022-12-15T00:12:43;15.60;;;14.03;;
3783;SDS011;1907;49.238;9.262;2022-12-15T00:15:27;18.37;;;15.87;;
3783;SDS011;1907;49.238;9.262;2022-12-15T00:18:11;16.83;;;15.10;;
3783;SDS011;1907;49.238;9.262;2022-12-15T00:20:58;20.13;;;16.57;;
3783;SDS011;1907;49.238;9.262;2022-12-15T00:23:42;20.87;;;15.23;;
3783;SDS011;1907;49.238;9.262;2022-12-15T00:26:27;18.73;;;16.63;;
3783;SDS011;1907;49.238;9.262;2022-12-15T00:29:11;19.67;;;16.67;;
3783;SDS011;1907;49.238;9.262;2022-12-15T00:31:55;17.50;;;15.83;;
3783;SDS011;1907;49.238;9.262;2022-12-15T00:34:39;18.03;;;15.93;;
3783;SDS011;1907;49.238;9.262;2022-12-15T00:37:23;15.50;;;14.30;;
3783;SDS011;1907;49.238;9.262;2022-12-15T00:40:07;16.37;;;14.67;;
3783;SDS011;1907;49.238;9.262;2022-12-15T00:42:33;21.23;;;15.20;;
3783;SDS011;1907;49.238;9.262;2022-12-15T00:44:59;16.63;;;15.33;;
3783;SDS011;1907;49.238;9.262;2022-12-15T00:47:25;16.20;;;14.70;;
3783;SDS011;1907;49.238;9.262;2022-12-15T00:49:51;18.00;;;16.43;;
3783;SDS011;1907;49.238;9.262;2022-12-15T00:52:35;15.13;;;13.80;;
3783;SDS011;1907;49.238;9.262;2022-12-15T00:55:19;17.60;;;16.10;;
3783;SDS011;1907;49.238;9.262;2022-12-15T00:58:03;14.50;;;13.40;;
3783;SDS011;1907;49.238;9.262;2022-12-15T01:00:48;17.27;;;15.53;;
3783;SDS011;1907;49.238;9.262;2022-12-15T01:03:32;19.77;;;15.97;;
3783;SDS011;1907;49.238;9.262;2022-12-15T01:06:17;16.07;;;14.77;;
3783;SDS011;1907;49.238;9.262;2022-12-15T01:09:02;14.27;;;13.20;;
3783;SDS011;1907;49.238;9.262;2022-12-15T01:11:49;14.87;;;13.50;;
3783;SDS011;1907;49.238;9.262;2022-12-15T01:14:33;15.17;;;13.60;;
3783;SDS011;1907;49.238;9.262;2022-12-15T01:17:17;16.63;;;14.90;;
3783;SDS011;1907;49.238;9.262;2022-12-15T01:20:02;15.53;;;14.20;;
3783;SDS011;1907;49.238;9.262;2022-12-15T01:22:39;18.27;;;16.67;;
3783;SDS011;1907;49.238;9.262;2022-12-15T01:25:06;14.60;;;13.50;;
3783;SDS011;1907;49.238;9.262;2022-12-15T01:27:33;16.73;;;15.30;;
3783;SDS011;1907;49.238;9.262;2022-12-15T01:29:59;18.30;;;15.23;;
3783;SDS011;1907;49.238;9.262;2022-12-15T01:32:25;22.00;;;16.07;;
3783;SDS011;1907;49.238;9.262;2022-12-15T01:34:51;17.20;;;15.70;;
3783;SDS011;1907;49.238;9.262;2022-12-15T01:37:17;16.50;;;14.80;;
3783;SDS011;1907;49.238;9.262;2022-12-15T01:39:43;16.97;;;15.43;;
3783;SDS011;1907;49.238;9.262;2022-12-15T01:42:27;15.77;;;14.27;;
3783;SDS011;1907;49.238;9.262;2022-12-15T01:44:52;19.60;;;17.23;;
3783;SDS011;1907;49.238;9.262;2022-12-15T01:47:38;18.27;;;14.93;;
3783;SDS011;1907;49.238;9.262;2022-12-15T01:50:04;15.93;;;14.90;;
3783;SDS011;1907;49.238;9.262;2022-12-15T01:52:32;14.37;;;13.27;;
3783;SDS011;1907;49.238;9.262;2022-12-15T01:54:58;14.63;;;13.20;;
3783;SDS011;1907;49.238;9.262;2022-12-15T01:57:24;18.57;;;16.60;;
3783;SDS011;1907;49.238;9.262;2022-12-15T01:59:53;15.70;;;14.50;;
3783;SDS011;1907;49.238;9.262;2022-12-15T02:02:24;19.93;;;17.67;;
3783;SDS011;1907;49.238;9.262;2022-12-15T02:04:53;15.10;;;13.73;;
3783;SDS011;1907;49.238;9.262;2022-12-15T02:07:22;17.33;;;15.83;;
3783;SDS011;1907;49.238;9.262;2022-12-15T02:09:48;15.60;;;14.40;;
3783;SDS011;1907;49.238;9.262;2022-12-15T02:12:20;15.10;;;14.03;;
3783;SDS011;1907;49.238;9.262;2022-12-15T02:31:49;14.90;;;13.70;;
3783;SDS011;1907;49.238;9.262;2022-12-15T02:37:22;16.13;;;14.63;;
3783;SDS011;1907;49.238;9.262;2022-12-15T02:39:56;16.23;;;14.83;;
3783;SDS011;1907;49.238;9.262;2022-12-15T02:42:22;16.27;;;14.70;;
3783;SDS011;1907;49.238;9.262;2022-12-15T02:44:57;16.43;;;14.73;;
3783;SDS011;1907;49.238;9.262;2022-12-15T02:53:15;24.10;;;14.17;;
3783;SDS011;1907;49.238;9.262;2022-12-15T02:56:18;15.13;;;13.73;;
3783;SDS011;1907;49.238;9.262;2022-12-15T03:01:52;14.33;;;13.17;;
3783;SDS011;1907;49.238;9.262;2022-12-15T03:04:22;15.67;;;14.50;;
3783;SDS011;1907;49.238;9.262;2022-12-15T03:06:53;15.77;;;14.40;;
3783;SDS011;1907;49.238;9.262;2022-12-15T03:09:21;19.03;;;15.07;;
3783;SDS011;1907;49.238;9.262;2022-12-15T03:11:46;22.93;;;16.47;;
3783;SDS011;1907;49.238;9.262;2022-12-15T03:14:12;17.23;;;15.53;;
3783;SDS011;1907;49.238;9.262;2022-12-15T03:16:37;17.57;;;16.00;;
3783;SDS011;1907;49.238;9.262;2022-12-15T03:19:03;18.57;;;16.50;;
3783;SDS011;1907;49.238;9.262;2022-12-15T03:21:28;16.60;;;14.43;;
3783;SDS011;1907;49.238;9.262;2022-12-15T03:23:54;16.43;;;15.00;;
3783;SDS011;1907;49.238;9.262;2022-12-15T03:26:20;16.63;;;14.57;;
3783;SDS011;1907;49.238;9.262;2022-12-15T03:28:45;15.93;;;14.43;;
3783;SDS011;1907;49.238;9.262;2022-12-15T03:31:11;16.23;;;14.70;;
3783;SDS011;1907;49.238;9.262;2022-12-15T03:33:37;17.80;;;15.93;;
3783;SDS011;1907;49.238;9.262;2022-12-15T03:36:03;20.90;;;15.00;;
3783;SDS011;1907;49.238;9.262;2022-12-15T03:38:29;14.90;;;13.60;;
3783;SDS011;1907;49.238;9.262;2022-12-15T03:40:54;18.13;;;16.57;;
3783;SDS011;1907;49.238;9.262;2022-12-15T03:43:20;16.10;;;14.90;;
3783;SDS011;1907;49.238;9.262;2022-12-15T03:45:46;18.50;;;16.30;;
3783;SDS011;1907;49.238;9.262;2022-12-15T03:48:11;22.87;;;17.67;;
3783;SDS011;1907;49.238;9.262;2022-12-15T03:50:37;17.03;;;15.23;;
3783;SDS011;1907;49.238;9.262;2022-12-15T03:53:03;15.07;;;13.90;;
3783;SDS011;1907;49.238;9.262;2022-12-15T03:55:29;16.30;;;14.70;;
3783;SDS011;1907;49.238;9.262;2022-12-15T03:57:55;18.10;;;16.37;;
3783;SDS011;1907;49.238;9.262;2022-12-15T04:00:21;18.90;;;16.67;;
3783;SDS011;1907;49.238;9.262;2022-12-15T04:02:48;16.97;;;15.27;;
3783;SDS011;1907;49.238;9.262;2022-12-15T04:05:16;17.83;;;16.10;;
3783;SDS011;1907;49.238;9.262;2022-12-15T04:07:44;34.00;;;16.83;;
3783;SDS011;1907;49.238;9.262;2022-12-15T04:10:10;31.80;;;18.60;;
3783;SDS011;1907;49.238;9.262;2022-12-15T04:12:36;20.10;;;17.20;;
3783;SDS011;1907;49.238;9.262;2022-12-15T04:15:03;18.50;;;16.63;;
3783;SDS011;1907;49.238;9.262;2022-12-15T04:17:30;23.60;;;18.20;;
3783;SDS011;1907;49.238;9.262;2022-12-15T04:19:55;19.73;;;17.67;;
3783;SDS011;1907;49.238;9.262;2022-12-15T04:22:34;17.60;;;16.00;;
3783;SDS011;1907;49.238;9.262;2022-12-15T04:25:05;16.83;;;14.90;;
3783;SDS011;1907;49.238;9.262;2022-12-15T04:27:50;16.60;;;15.17;;
3783;SDS011;1907;49.238;9.262;2022-12-15T04:30:34;19.53;;;15.23;;
3783;SDS011;1907;49.238;9.262;2022-12-15T04:33:18;27.47;;;21.93;;
3783;SDS011;1907;49.238;9.262;2022-12-15T04:36:04;26.03;;;21.77;;
3783;SDS011;1907;49.238;9.262;2022-12-15T04:38:50;14.00;;;13.10;;
3783;SDS011;1907;49.238;9.262;2022-12-15T04:41:34;15.13;;;14.10;;
3783;SDS011;1907;49.238;9.262;2022-12-15T04:44:18;15.87;;;14.77;;
3783;SDS011;1907;49.238;9.262;2022-12-15T04:47:02;16.07;;;14.53;;
3783;SDS011;1907;49.238;9.262;2022-12-15T04:49:46;17.40;;;16.10;;
3783;SDS011;1907;49.238;9.262;2022-12-15T04:52:30;16.60;;;15.10;;
3783;SDS011;1907;49.238;9.262;2022-12-15T04:55:14;16.07;;;14.70;;
3783;SDS011;1907;49.238;9.262;2022-12-15T04:58:02;16.67;;;15.00;;
3783;SDS011;1907;49.238;9.262;2022-12-15T05:00:49;19.20;;;17.13;;
3783;SDS011;1907;49.238;9.262;2022-12-15T05:03:33;16.23;;;15.03;;
3783;SDS011;1907;49.238;9.262;2022-12-15T05:06:17;18.30;;;16.57;;
3783;SDS011;1907;49.238;9.262;2022-12-15T05:09:01;21.43;;;16.27;;
3783;SDS011;1907;49.238;9.262;2022-12-15T05:11:46;15.83;;;14.47;;
3783;SDS011;1907;49.238;9.262;2022-12-15T05:14:30;18.87;;;15.97;;
3783;SDS011;1907;49.238;9.262;2022-12-15T05:17:14;16.07;;;14.80;;
3783;SDS011;1907;49.238;9.262;2022-12-15T05:19:58;16.70;;;15.10;;
3783;SDS011;1907;49.238;9.262;2022-12-15T05:22:42;18.30;;;15.87;;
3783;SDS011;1907;49.238;9.262;2022-12-15T05:25:26;19.23;;;17.23;;
3783;SDS011;1907;49.238;9.262;2022-12-15T05:28:10;18.40;;;16.63;;
3783;SDS011;1907;49.238;9.262;2022-12-15T05:30:54;18.00;;;16.07;;
3783;SDS011;1907;49.238;9.262;2022-12-15T05:33:38;18.60;;;15.37;;
3783;SDS011;1907;49.238;9.262;2022-12-15T05:36:04;15.73;;;14.47;;
3783;SDS011;1907;49.238;9.262;2022-12-15T05:38:30;18.27;;;16.60;;
3783;SDS011;1907;49.238;9.262;2022-12-15T05:40:56;18.97;;;17.00;;
3783;SDS011;1907;49.238;9.262;2022-12-15T05:43:22;17.77;;;16.20;;
3783;SDS011;1907;49.238;9.262;2022-12-15T05:45:48;17.10;;;15.60;;
3783;SDS011;1907;49.238;9.262;2022-12-15T05:48:13;17.87;;;16.27;;
3783;SDS011;1907;49.238;9.262;2022-12-15T05:50:39;19.60;;;17.60;;
3783;SDS011;1907;49.238;9.262;2022-12-15T05:53:04;17.67;;;16.20;;
3783;SDS011;1907;49.238;9.262;2022-12-15T05:55:30;18.63;;;16.67;;
3783;SDS011;1907;49.238;9.262;2022-12-15T05:57:55;17.77;;;15.97;;
3783;SDS011;1907;49.238;9.262;2022-12-15T06:00:21;16.43;;;15.00;;
3783;SDS011;1907;49.238;9.262;2022-12-15T06:02:47;20.30;;;16.80;;
3783;SDS011;1907;49.238;9.262;2022-12-15T06:05:13;20.03;;;17.73;;
3783;SDS011;1907;49.238;9.262;2022-12-15T06:07:38;17.17;;;15.60;;
3783;SDS011;1907;49.238;9.262;2022-12-15T06:10:04;18.07;;;16.40;;
3783;SDS011;1907;49.238;9.262;2022-12-15T06:12:30;17.20;;;15.70;;
3783;SDS011;1907;49.238;9.262;2022-12-15T06:14:55;20.27;;;17.13;;
3783;SDS011;1907;49.238;9.262;2022-12-15T06:17:21;17.20;;;15.23;;
3783;SDS011;1907;49.238;9.262;2022-12-15T06:19:46;20.03;;;16.60;;
3783;SDS011;1907;49.238;9.262;2022-12-15T06:22:12;20.93;;;17.60;;
3783;SDS011;1907;49.238;9.262;2022-12-15T06:24:37;22.70;;;18.30;;
3783;SDS011;1907;49.238;9.262;2022-12-15T06:27:03;18.97;;;17.17;;
3783;SDS011;1907;49.238;9.262;2022-12-15T06:29:29;17.60;;;15.93;;
3783;SDS011;1907;49.238;9.262;2022-12-15T06:31:54;20.90;;;19.10;;
3783;SDS011;1907;49.238;9.262;2022-12-15T06:34:20;18.47;;;16.60;;
3783;SDS011;1907;49.238;9.262;2022-12-15T06:36:45;18.87;;;17.17;;
3783;SDS011;1907;49.238;9.262;2022-12-15T06:39:12;16.33;;;14.83;;
3783;SDS011;1907;49.238;9.262;2022-12-15T06:41:39;19.47;;;17.47;;
3783;SDS011;1907;49.238;9.262;2022-12-15T06:44:05;18.40;;;16.90;;
3783;SDS011;1907;49.238;9.262;2022-12-15T06:46:31;17.43;;;15.80;;
3783;SDS011;1907;49.238;9.262;2022-12-15T06:48:58;19.20;;;17.30;;
3783;SDS011;1907;49.238;9.262;2022-12-15T06:51:25;18.83;;;16.40;;
3783;SDS011;1907;49.238;9.262;2022-12-15T06:53:51;21.40;;;17.00;;
3783;SDS011;1907;49.238;9.262;2022-12-15T06:56:24;18.00;;;16.30;;
3783;SDS011;1907;49.238;9.262;2022-12-15T06:58:51;15.50;;;14.00;;
3783;SDS011;1907;49.238;9.262;2022-12-15T07:01:19;18.07;;;16.07;;
3783;SDS011;1907;49.238;9.262;2022-12-15T07:03:46;21.70;;;16.60;;
3783;SDS011;1907;49.238;9.262;2022-12-15T07:06:13;15.80;;;14.30;;
3783;SDS011;1907;49.238;9.262;2022-12-15T07:08:40;22.23;;;18.90;;
3783;SDS011;1907;49.238;9.262;2022-12-15T07:11:06;21.00;;;17.43;;
3783;SDS011;1907;49.238;9.262;2022-12-15T07:13:36;19.47;;;16.20;;
3783;SDS011;1907;49.238;9.262;2022-12-15T07:16:03;16.60;;;15.20;;
3783;SDS011;1907;49.238;9.262;2022-12-15T07:18:30;16.83;;;15.17;;
3783;SDS011;1907;49.238;9.262;2022-12-15T07:20:56;22.07;;;17.57;;
3783;SDS011;1907;49.238;9.262;2022-12-15T07:23:27;19.07;;;17.37;;
3783;SDS011;1907;49.238;9.262;2022-12-15T07:25:53;19.13;;;17.30;;
3783;SDS011;1907;49.238;9.262;2022-12-15T07:28:18;17.53;;;15.97;;
3783;SDS011;1907;49.238;9.262;2022-12-15T07:30:44;17.30;;;15.53;;
3783;SDS011;1907;49.238;9.262;2022-12-15T07:33:10;18.37;;;16.50;;
3783;SDS011;1907;49.238;9.262;2022-12-15T07:35:35;16.47;;;14.90;;
3783;SDS011;1907;49.238;9.262;2022-12-15T07:38:02;18.17;;;16.30;;
3783;SDS011;1907;49.238;9.262;2022-12-15T07:40:30;16.17;;;14.47;;
3783;SDS011;1907;49.238;9.262;2022-12-15T07:42:56;17.80;;;16.17;;
3783;SDS011;1907;49.238;9.262;2022-12-15T07:45:22;19.70;;;17.80;;
3783;SDS011;1907;49.238;9.262;2022-12-15T07:47:48;17.20;;;15.60;;
3783;SDS011;1907;49.238;9.262;2022-12-15T07:50:15;19.20;;;17.00;;
3783;SDS011;1907;49.238;9.262;2022-12-15T07:52:41;17.90;;;15.97;;
3783;SDS011;1907;49.238;9.262;2022-12-15T07:55:07;19.47;;;17.47;;
3783;SDS011;1907;49.238;9.262;2022-12-15T07:57:33;16.93;;;15.53;;
3783;SDS011;1907;49.238;9.262;2022-12-15T07:59:58;18.80;;;16.90;;
3783;SDS011;1907;49.238;9.262;2022-12-15T08:02:24;16.67;;;15.17;;
3783;SDS011;1907;49.238;9.262;2022-12-15T08:04:49;19.97;;;17.97;;
3783;SDS011;1907;49.238;9.262;2022-12-15T08:07:15;22.30;;;18.07;;
3783;SDS011;1907;49.238;9.262;2022-12-15T08:09:41;16.07;;;14.70;;
3783;SDS011;1907;49.238;9.262;2022-12-15T08:12:06;17.77;;;16.03;;
3783;SDS011;1907;49.238;9.262;2022-12-15T08:14:32;18.13;;;16.20;;
3783;SDS011;1907;49.238;9.262;2022-12-15T08:16:58;17.67;;;16.20;;
3783;SDS011;1907;49.238;9.262;2022-12-15T08:19:24;21.20;;;16.83;;
3783;SDS011;1907;49.238;9.262;2022-12-15T08:21:50;18.43;;;16.80;;
3783;SDS011;1907;49.238;9.262;2022-12-15T08:24:15;18.83;;;17.13;;
3783;SDS011;1907;49.238;9.262;2022-12-15T08:26:41;30.23;;;21.63;;
3783;SDS011;1907;49.238;9.262;2022-12-15T08:29:11;29.73;;;22.53;;
3783;SDS011;1907;49.238;9.262;2022-12-15T08:31:38;21.90;;;17.33;;
3783;SDS011;1907;49.238;9.262;2022-12-15T08:34:05;20.30;;;17.10;;
3783;SDS011;1907;49.238;9.262;2022-12-15T08:36:31;20.20;;;18.20;;
3783;SDS011;1907;49.238;9.262;2022-12-15T08:38:58;19.73;;;17.60;;
3783;SDS011;1907;49.238;9.262;2022-12-15T08:41:26;23.67;;;21.13;;
3783;SDS011;1907;49.238;9.262;2022-12-15T08:43:54;28.07;;;19.17;;
3783;SDS011;1907;49.238;9.262;2022-12-15T08:46:24;18.50;;;16.60;;
3783;SDS011;1907;49.238;9.262;2022-12-15T08:48:51;17.57;;;16.10;;
3783;SDS011;1907;49.238;9.262;2022-12-15T08:51:18;18.23;;;16.67;;
3783;SDS011;1907;49.238;9.262;2022-12-15T08:53:44;21.40;;;18.37;;
3783;SDS011;1907;49.238;9.262;2022-12-15T08:56:10;21.37;;;19.10;;
3783;SDS011;1907;49.238;9.262;2022-12-15T08:58:38;17.50;;;16.00;;
3783;SDS011;1907;49.238;9.262;2022-12-15T09:01:04;17.47;;;15.80;;
3783;SDS011;1907;49.238;9.262;2022-12-15T09:03:33;19.63;;;16.33;;
3783;SDS011;1907;49.238;9.262;2022-12-15T09:06:11;24.03;;;17.90;;
3783;SDS011;1907;49.238;9.262;2022-12-15T09:08:38;18.63;;;16.93;;
3783;SDS011;1907;49.238;9.262;2022-12-15T09:11:04;22.40;;;17.53;;
3783;SDS011;1907;49.238;9.262;2022-12-15T09:13:30;18.33;;;16.47;;
3783;SDS011;1907;49.238;9.262;2022-12-15T09:18:22;19.53;;;16.13;;
3783;SDS011;1907;49.238;9.262;2022-12-15T09:20:47;18.23;;;15.47;;
3783;SDS011;1907;49.238;9.262;2022-12-15T09:23:13;17.93;;;16.10;;
3783;SDS011;1907;49.238;9.262;2022-12-15T09:25:39;17.07;;;15.47;;
3783;SDS011;1907;49.238;9.262;2022-12-15T09:28:04;17.90;;;16.07;;
3783;SDS011;1907;49.238;9.262;2022-12-15T09:30:30;15.87;;;14.73;;
3783;SDS011;1907;49.238;9.262;2022-12-15T09:32:55;18.10;;;16.30;;
3783;SDS011;1907;49.238;9.262;2022-12-15T09:35:21;17.87;;;16.20;;
3783;SDS011;1907;49.238;9.262;2022-12-15T09:37:46;20.70;;;16.43;;
3783;SDS011;1907;49.238;9.262;2022-12-15T09:40:13;18.20;;;16.50;;
3783;SDS011;1907;49.238;9.262;2022-12-15T09:42:39;18.50;;;16.80;;
3783;SDS011;1907;49.238;9.262;2022-12-15T09:47:45;16.40;;;14.73;;
3783;SDS011;1907;49.238;9.262;2022-12-15T09:50:33;16.80;;;15.33;;
3783;SDS011;1907;49.238;9.262;2022-12-15T09:53:00;17.70;;;15.90;;
3783;SDS011;1907;49.238;9.262;2022-12-15T09:55:30;17.43;;;15.97;;
3783;SDS011;1907;49.238;9.262;2022-12-15T09:58:30;18.07;;;16.63;;
3783;SDS011;1907;49.238;9.262;2022-12-15T10:04:12;18.50;;;16.60;;
3783;SDS011;1907;49.238;9.262;2022-12-15T10:09:27;18.63;;;16.77;;
3783;SDS011;1907;49.238;9.262;2022-12-15T10:11:56;18.63;;;16.87;;
3783;SDS011;1907;49.238;9.262;2022-12-15T10:17:32;17.93;;;16.13;;
3783;SDS011;1907;49.238;9.262;2022-12-15T10:20:26;17.33;;;15.57;;
3783;SDS011;1907;49.238;9.262;2022-12-15T10:22:55;20.17;;;18.17;;
3783;SDS011;1907;49.238;9.262;2022-12-15T10:25:27;18.93;;;16.50;;
3783;SDS011;1907;49.238;9.262;2022-12-15T10:27:57;20.57;;;17.60;;
3783;SDS011;1907;49.238;9.262;2022-12-15T10:33:22;18.77;;;15.97;;
3783;SDS011;1907;49.238;9.262;2022-12-15T10:35:51;18.60;;;17.00;;
3783;SDS011;1907;49.238;9.262;2022-12-15T10:38:51;17.23;;;15.77;;
3783;SDS011;1907;49.238;9.262;2022-12-15T10:41:18;17.07;;;15.37;;
3783;SDS011;1907;49.238;9.262;2022-12-15T10:43:46;17.63;;;16.13;;
3783;SDS011;1907;49.238;9.262;2022-12-15T10:46:15;17.93;;;16.43;;
3783;SDS011;1907;49.238;9.262;2022-12-15T10:48:46;16.37;;;15.13;;
3783;SDS011;1907;49.238;9.262;2022-12-15T10:51:27;19.27;;;17.27;;
3783;SDS011;1907;49.238;9.262;2022-12-15T10:56:31;16.60;;;15.10;;
3783;SDS011;1907;49.238;9.262;2022-12-15T10:59:00;17.97;;;16.10;;
3783;SDS011;1907;49.238;9.262;2022-12-15T11:01:29;21.00;;;19.03;;
3783;SDS011;1907;49.238;9.262;2022-12-15T11:03:57;17.90;;;16.30;;
3783;SDS011;1907;49.238;9.262;2022-12-15T11:06:23;19.70;;;17.83;;
3783;SDS011;1907;49.238;9.262;2022-12-15T11:08:52;17.90;;;16.30;;
3783;SDS011;1907;49.238;9.262;2022-12-15T11:11:30;18.13;;;16.37;;
3783;SDS011;1907;49.238;9.262;2022-12-15T11:14:18;19.50;;;17.70;;
3783;SDS011;1907;49.238;9.262;2022-12-15T11:16:49;17.27;;;15.67;;
3783;SDS011;1907;49.238;9.262;2022-12-15T11:19:59;17.73;;;15.67;;
3783;SDS011;1907;49.238;9.262;2022-12-15T11:28:15;18.17;;;16.53;;
3783;SDS011;1907;49.238;9.262;2022-12-15T11:30:46;19.63;;;17.63;;
3783;SDS011;1907;49.238;9.262;2022-12-15T11:33:20;18.90;;;16.97;;
3783;SDS011;1907;49.238;9.262;2022-12-15T11:35:50;22.57;;;19.97;;
3783;SDS011;1907;49.238;9.262;2022-12-15T11:38:47;20.67;;;16.47;;
3783;SDS011;1907;49.238;9.262;2022-12-15T11:41:23;18.13;;;16.53;;
3783;SDS011;1907;49.238;9.262;2022-12-15T11:44:06;19.30;;;16.83;;
3783;SDS011;1907;49.238;9.262;2022-12-15T11:46:58;17.50;;;15.90;;
3783;SDS011;1907;49.238;9.262;2022-12-15T11:52:59;17.33;;;15.83;;
3783;SDS011;1907;49.238;9.262;2022-12-15T11:58:26;18.40;;;16.57;;
3783;SDS011;1907;49.238;9.262;2022-12-15T12:06:40;18.17;;;15.43;;
3783;SDS011;1907;49.238;9.262;2022-12-15T12:09:23;18.37;;;16.07;;
3783;SDS011;1907;49.238;9.262;2022-12-15T12:14:29;17.13;;;15.43;;
3783;SDS011;1907;49.238;9.262;2022-12-15T12:17:06;19.00;;;17.00;;
3783;SDS011;1907;49.238;9.262;2022-12-15T12:19:40;17.27;;;15.60;;
3783;SDS011;1907;49.238;9.262;2022-12-15T12:25:10;17.77;;;16.20;;
3783;SDS011;1907;49.238;9.262;2022-12-15T12:27:46;17.33;;;15.80;;
3783;SDS011;1907;49.238;9.262;2022-12-15T12:30:19;17.80;;;16.00;;
3783;SDS011;1907;49.238;9.262;2022-12-15T12:33:08;18.03;;;16.43;;
3783;SDS011;1907;49.238;9.262;2022-12-15T12:35:46;17.03;;;15.40;;
3783;SDS011;1907;49.238;9.262;2022-12-15T12:38:15;18.00;;;16.40;;
3783;SDS011;1907;49.238;9.262;2022-12-15T12:41:00;17.37;;;15.50;;
3783;SDS011;1907;49.238;9.262;2022-12-15T12:43:47;17.67;;;16.20;;
3783;SDS011;1907;49.238;9.262;2022-12-15T12:46:23;18.03;;;16.33;;
3783;SDS011;1907;49.238;9.262;2022-12-15T12:49:02;17.27;;;15.63;;
3783;SDS011;1907;49.238;9.262;2022-12-15T12:51:37;19.10;;;17.03;;
3783;SDS011;1907;49.238;9.262;2022-12-15T12:56:58;17.53;;;15.37;;
3783;SDS011;1907;49.238;9.262;2022-12-15T13:01:57;20.17;;;18.10;;
3783;SDS011;1907;49.238;9.262;2022-12-15T13:04:39;19.07;;;17.10;;
3783;SDS011;1907;49.238;9.262;2022-12-15T13:17:53;17.60;;;16.00;;
3783;SDS011;1907;49.238;9.262;2022-12-15T13:20:39;18.60;;;17.00;;
3783;SDS011;1907;49.238;9.262;2022-12-15T13:23:31;19.53;;;17.43;;
3783;SDS011;1907;49.238;9.262;2022-12-15T13:41:27;22.67;;;20.27;;
3783;SDS011;1907;49.238;9.262;2022-12-15T13:43:53;19.07;;;16.93;;
3783;SDS011;1907;49.238;9.262;2022-12-15T13:46:22;17.10;;;15.27;;
3783;SDS011;1907;49.238;9.262;2022-12-15T13:49:00;18.47;;;16.50;;
3783;SDS011;1907;49.238;9.262;2022-12-15T13:51:40;17.87;;;16.27;;
3783;SDS011;1907;49.238;9.262;2022-12-15T13:54:13;21.60;;;18.90;;
3783;SDS011;1907;49.238;9.262;2022-12-15T14:00:05;18.97;;;16.90;;
3783;SDS011;1907;49.238;9.262;2022-12-15T14:02:32;16.80;;;15.50;;
3783;SDS011;1907;49.238;9.262;2022-12-15T14:07:47;18.50;;;16.60;;
3783;SDS011;1907;49.238;9.262;2022-12-15T14:10:23;18.70;;;16.90;;
3783;SDS011;1907;49.238;9.262;2022-12-15T14:13:00;17.10;;;15.50;;
3783;SDS011;1907;49.238;9.262;2022-12-15T14:15:34;24.70;;;18.30;;
3783;SDS011;1907;49.238;9.262;2022-12-15T14:18:19;22.97;;;19.43;;
3783;SDS011;1907;49.238;9.262;2022-12-15T14:20:51;18.10;;;16.50;;
3783;SDS011;1907;49.238;9.262;2022-12-15T14:23:21;21.03;;;18.73;;
3783;SDS011;1907;49.238;9.262;2022-12-15T14:25:52;23.90;;;19.07;;
3783;SDS011;1907;49.238;9.262;2022-12-15T14:28:30;17.50;;;15.67;;
3783;SDS011;1907;49.238;9.262;2022-12-15T14:31:31;24.90;;;18.97;;
3783;SDS011;1907;49.238;9.262;2022-12-15T14:33:51;28.80;;;22.60;;
3783;SDS011;1907;49.238;9.262;2022-12-15T14:36:26;25.93;;;19.03;;
3783;SDS011;1907;49.238;9.262;2022-12-15T14:38:54;28.63;;;19.40;;
3783;SDS011;1907;49.238;9.262;2022-12-15T14:41:24;31.10;;;20.70;;
3783;SDS011;1907;49.238;9.262;2022-12-15T14:44:00;29.10;;;20.60;;
3783;SDS011;1907;49.238;9.262;2022-12-15T14:46:51;16.77;;;15.17;;
3783;SDS011;1907;49.238;9.262;2022-12-15T14:49:21;26.87;;;17.53;;
3783;SDS011;1907;49.238;9.262;2022-12-15T14:51:52;20.60;;;16.30;;
3783;SDS011;1907;49.238;9.262;2022-12-15T14:59:33;21.83;;;19.47;;
3783;SDS011;1907;49.238;9.262;2022-12-15T15:02:19;23.63;;;19.77;;
3783;SDS011;1907;49.238;9.262;2022-12-15T15:05:02;23.57;;;20.07;;
3783;SDS011;1907;49.238;9.262;2022-12-15T15:07:31;31.60;;;20.97;;
3783;SDS011;1907;49.238;9.262;2022-12-15T15:09:59;23.80;;;20.03;;
3783;SDS011;1907;49.238;9.262;2022-12-15T15:12:40;24.97;;;17.70;;
3783;SDS011;1907;49.238;9.262;2022-12-15T15:15:16;21.90;;;19.33;;
3783;SDS011;1907;49.238;9.262;2022-12-15T15:22:46;41.33;;;20.77;;
3783;SDS011;1907;49.238;9.262;2022-12-15T15:30:42;22.13;;;19.47;;
3783;SDS011;1907;49.238;9.262;2022-12-15T15:33:29;23.97;;;20.50;;
3783;SDS011;1907;49.238;9.262;2022-12-15T15:35:56;29.83;;;20.10;;
3783;SDS011;1907;49.238;9.262;2022-12-15T15:38:38;21.77;;;19.70;;
3783;SDS011;1907;49.238;9.262;2022-12-15T15:41:19;24.50;;;19.20;;
3783;SDS011;1907;49.238;9.262;2022-12-15T15:43:47;25.37;;;20.83;;
3783;SDS011;1907;49.238;9.262;2022-12-15T15:46:13;32.03;;;21.87;;
3783;SDS011;1907;49.238;9.262;2022-12-15T15:48:42;23.07;;;20.67;;
3783;SDS011;1907;49.238;9.262;2022-12-15T15:51:13;23.50;;;20.00;;
3783;SDS011;1907;49.238;9.262;2022-12-15T15:53:39;27.20;;;21.10;;
3783;SDS011;1907;49.238;9.262;2022-12-15T15:56:05;33.43;;;22.17;;
3783;SDS011;1907;49.238;9.262;2022-12-15T15:58:34;26.90;;;21.07;;
3783;SDS011;1907;49.238;9.262;2022-12-15T16:01:00;21.13;;;18.93;;
3783;SDS011;1907;49.238;9.262;2022-12-15T16:03:26;28.10;;;22.33;;
3783;SDS011;1907;49.238;9.262;2022-12-15T16:05:53;25.33;;;21.27;;
3783;SDS011;1907;49.238;9.262;2022-12-15T16:08:20;24.17;;;20.23;;
3783;SDS011;1907;49.238;9.262;2022-12-15T16:10:51;22.60;;;20.47;;
3783;SDS011;1907;49.238;9.262;2022-12-15T16:13:17;26.23;;;20.30;;
3783;SDS011;1907;49.238;9.262;2022-12-15T16:15:44;25.90;;;20.17;;
3783;SDS011;1907;49.238;9.262;2022-12-15T16:18:09;21.63;;;19.30;;
3783;SDS011;1907;49.238;9.262;2022-12-15T16:20:36;32.73;;;21.43;;
3783;SDS011;1907;49.238;9.262;2022-12-15T16:23:04;25.27;;;19.80;;
3783;SDS011;1907;49.238;9.262;2022-12-15T16:25:38;24.30;;;19.73;;
3783;SDS011;1907;49.238;9.262;2022-12-15T16:28:10;20.53;;;18.43;;
3783;SDS011;1907;49.238;9.262;2022-12-15T16:30:38;28.63;;;20.80;;
3783;SDS011;1907;49.238;9.262;2022-12-15T16:33:04;30.03;;;22.33;;
3783;SDS011;1907;49.238;9.262;2022-12-15T16:35:29;22.37;;;20.00;;
3783;SDS011;1907;49.238;9.262;2022-12-15T16:37:55;21.23;;;19.13;;
3783;SDS011;1907;49.238;9.262;2022-12-15T16:40:21;23.97;;;21.37;;
3783;SDS011;1907;49.238;9.262;2022-12-15T16:42:56;25.27;;;19.57;;
3783;SDS011;1907;49.238;9.262;2022-12-15T16:45:25;25.03;;;21.10;;
3783;SDS011;1907;49.238;9.262;2022-12-15T16:47:52;24.77;;;20.80;;
3783;SDS011;1907;49.238;9.262;2022-12-15T16:50:20;20.80;;;18.87;;
3783;SDS011;1907;49.238;9.262;2022-12-15T16:52:51;27.73;;;21.07;;
3783;SDS011;1907;49.238;9.262;2022-12-15T16:55:27;25.13;;;18.50;;
3783;SDS011;1907;49.238;9.262;2022-12-15T16:57:54;26.50;;;21.03;;
3783;SDS011;1907;49.238;9.262;2022-12-15T17:00:25;26.30;;;21.83;;
3783;SDS011;1907;49.238;9.262;2022-12-15T17:02:52;22.07;;;19.80;;
3783;SDS011;1907;49.238;9.262;2022-12-15T17:05:19;22.50;;;18.17;;
3783;SDS011;1907;49.238;9.262;2022-12-15T17:07:46;20.20;;;18.20;;
3783;SDS011;1907;49.238;9.262;2022-12-15T17:10:16;23.33;;;19.00;;
3783;SDS011;1907;49.238;9.262;2022-12-15T17:12:44;25.70;;;20.60;;
3783;SDS011;1907;49.238;9.262;2022-12-15T17:15:21;22.33;;;19.03;;
3783;SDS011;1907;49.238;9.262;2022-12-15T17:17:48;24.67;;;20.13;;
3783;SDS011;1907;49.238;9.262;2022-12-15T17:20:16;21.90;;;18.67;;
3783;SDS011;1907;49.238;9.262;2022-12-15T17:22:54;22.10;;;18.87;;